Time,TemperatureF,DewpointF,PressureIn,WindDirection,WindDirectionDegrees,WindSpeedMPH,WindSpeedGustMPH,Humidity,HourlyPrecipIn,Conditions,Clouds,dailyrainin,SoftwareType,DateUTC
2013-04-10 00:00:00,47.1,45.7,29.92,NNW,346,3.0,3.0,95,0.00,,,0.00,Wunderground v.1.15,2013-04-10 04:00:00,
2013-04-10 00:02:00,47.1,45.7,29.92,NNE,20,2.0,3.0,95,0.00,,,0.00,Wunderground v.1.15,2013-04-10 04:02:00,
2013-04-10 00:04:00,47.0,45.6,29.92,NNW,348,2.0,3.0,95,0.00,,,0.00,Wunderground v.1.15,2013-04-10 04:04:00,
2013-04-10 00:10:00,46.8,45.7,29.93,NE,38,3.0,6.0,96,0.00,,,0.00,Wunderground v.1.15,2013-04-10 04:10:00,
2013-04-10 00:16:00,46.7,45.6,29.92,NNE,33,3.0,6.0,96,0.00,,,0.00,Wunderground v.1.15,2013-04-10 04:16:00,
2013-04-10 00:22:00,46.6,45.5,29.92,North,8,3.0,5.0,96,0.00,,,0.00,Wunderground v.1.15,2013-04-10 04:22:00,
2013-04-10 00:26:00,46.4,45.0,29.91,North,352,4.0,9.0,95,0.00,,,0.00,Wunderground v.1.15,2013-04-10 04:26:00,
2013-04-10 00:32:00,46.0,44.6,29.91,North,356,5.0,5.0,95,0.00,,,0.00,Wunderground v.1.15,2013-04-10 04:32:00,
2013-04-10 00:38:00,45.8,44.4,29.91,NE,49,4.0,6.0,95,0.00,,,0.00,Wunderground v.1.15,2013-04-10 04:38:00,
2013-04-10 00:44:00,45.5,44.2,29.91,NNE,27,4.0,6.0,95,0.00,,,0.00,Wunderground v.1.15,2013-04-10 04:44:00,
2013-04-10 00:50:00,45.4,44.1,29.92,North,8,4.0,4.0,95,0.00,,,0.00,Wunderground v.1.15,2013-04-10 04:50:00,
2013-04-10 00:56:00,45.3,44.2,29.92,NE,44,3.0,5.0,96,0.00,,,0.00,Wunderground v.1.15,2013-04-10 04:56:00,
2013-04-10 01:02:00,45.2,44.1,29.92,NNE,27,3.0,3.0,96,0.00,,,0.01,Wunderground v.1.15,2013-04-10 05:02:00,
2013-04-10 01:08:00,45.1,44.0,29.93,NE,34,2.0,5.0,96,0.00,,,0.01,Wunderground v.1.15,2013-04-10 05:08:00,
2013-04-10 01:14:00,45.0,43.9,29.94,NNW,340,3.0,6.0,96,0.00,,,0.01,Wunderground v.1.15,2013-04-10 05:14:00,
2013-04-10 01:20:00,45.0,43.9,29.95,NNW,348,3.0,4.0,96,0.00,,,0.02,Wunderground v.1.15,2013-04-10 05:20:00,
2013-04-10 01:26:00,45.0,43.9,29.94,NNE,13,3.0,4.0,96,0.00,,,0.02,Wunderground v.1.15,2013-04-10 05:26:00,
2013-04-10 01:32:00,45.1,44.0,29.94,NNE,17,2.0,3.0,96,0.00,,,0.02,Wunderground v.1.15,2013-04-10 05:32:00,
2013-04-10 01:38:00,45.1,44.0,29.94,NNE,22,1.0,3.0,96,0.00,,,0.02,Wunderground v.1.15,2013-04-10 05:38:00,
2013-04-10 01:44:00,45.1,44.0,29.94,NNE,25,2.0,4.0,96,0.00,,,0.02,Wunderground v.1.15,2013-04-10 05:44:00,
2013-04-10 01:50:00,45.1,44.0,29.94,North,359,2.0,2.0,96,0.00,,,0.03,Wunderground v.1.15,2013-04-10 05:50:00,
2013-04-10 01:56:00,45.2,44.1,29.94,NNE,17,2.0,7.0,96,0.00,,,0.03,Wunderground v.1.15,2013-04-10 05:56:00,
2013-04-10 02:02:00,45.2,44.1,29.94,NNE,15,2.0,2.0,96,0.00,,,0.03,Wunderground v.1.15,2013-04-10 06:02:00,
2013-04-10 02:08:00,45.2,44.1,29.95,North,11,1.0,3.0,96,0.00,,,0.03,Wunderground v.1.15,2013-04-10 06:08:00,
2013-04-10 02:14:00,45.3,44.2,29.94,NNE,30,1.0,4.0,96,0.00,,,0.03,Wunderground v.1.15,2013-04-10 06:14:00,
2013-04-10 02:20:00,45.3,44.2,29.95,NE,43,2.0,2.0,96,0.00,,,0.03,Wunderground v.1.15,2013-04-10 06:20:00,
2013-04-10 02:26:00,45.4,44.3,29.95,NNE,20,1.0,2.0,96,0.00,,,0.03,Wunderground v.1.15,2013-04-10 06:26:00,
2013-04-10 02:32:00,45.5,44.4,29.94,NNE,18,1.0,1.0,96,0.00,,,0.04,Wunderground v.1.15,2013-04-10 06:32:00,
2013-04-10 02:38:00,45.5,44.4,29.94,NNE,30,1.0,1.0,96,0.00,,,0.04,Wunderground v.1.15,2013-04-10 06:38:00,
2013-04-10 02:44:00,45.5,44.4,29.94,North,8,1.0,2.0,96,0.00,,,0.04,Wunderground v.1.15,2013-04-10 06:44:00,
2013-04-10 02:50:00,45.5,44.4,29.94,North,11,1.0,1.0,96,0.00,,,0.04,Wunderground v.1.15,2013-04-10 06:50:00,
2013-04-10 02:56:00,45.6,44.5,29.95,NNE,22,0.0,1.0,96,0.00,,,0.04,Wunderground v.1.15,2013-04-10 06:56:00,
2013-04-10 03:02:00,45.6,44.5,29.94,NNE,30,0.0,0.0,96,0.00,,,0.05,Wunderground v.1.15,2013-04-10 07:02:00,
2013-04-10 03:08:00,45.6,44.5,29.94,North,8,0.0,0.0,96,0.00,,,0.05,Wunderground v.1.15,2013-04-10 07:08:00,
2013-04-10 03:14:00,45.6,44.5,29.94,NNE,15,0.0,1.0,96,0.00,,,0.05,Wunderground v.1.15,2013-04-10 07:14:00,
2013-04-10 03:20:00,45.7,44.6,29.93,NNE,15,0.0,0.0,96,0.00,,,0.05,Wunderground v.1.15,2013-04-10 07:20:00,
2013-04-10 03:26:00,45.7,44.6,29.94,NE,34,0.0,2.0,96,0.00,,,0.05,Wunderground v.1.15,2013-04-10 07:26:00,
2013-04-10 03:32:00,45.6,44.5,29.94,North,4,0.0,1.0,96,0.00,,,0.05,Wunderground v.1.15,2013-04-10 07:32:00,
2013-04-10 03:38:00,45.7,44.6,29.94,North,11,0.0,1.0,96,0.00,,,0.05,Wunderground v.1.15,2013-04-10 07:38:00,
2013-04-10 03:44:00,45.7,44.6,29.94,ENE,73,0.0,1.0,96,0.00,,,0.05,Wunderground v.1.15,2013-04-10 07:44:00,
2013-04-10 03:50:00,45.7,44.6,29.94,East,79,0.0,0.0,96,0.00,,,0.06,Wunderground v.1.15,2013-04-10 07:50:00,
2013-04-10 03:56:00,45.7,44.6,29.94,ENE,57,0.0,0.0,96,0.00,,,0.06,Wunderground v.1.15,2013-04-10 07:56:00,
2013-04-10 04:02:00,45.7,44.6,29.95,NNW,347,0.0,0.0,96,0.00,,,0.06,Wunderground v.1.15,2013-04-10 08:02:00,
2013-04-10 04:08:00,45.7,44.6,29.95,North,356,0.0,1.0,96,0.00,,,0.06,Wunderground v.1.15,2013-04-10 08:08:00,
2013-04-10 04:14:00,45.7,44.6,29.95,NE,36,1.0,2.0,96,0.00,,,0.06,Wunderground v.1.15,2013-04-10 08:14:00,
2013-04-10 04:20:00,45.8,44.7,29.95,NE,39,1.0,1.0,96,0.00,,,0.06,Wunderground v.1.15,2013-04-10 08:20:00,
2013-04-10 04:26:00,45.8,44.7,29.94,NE,53,1.0,1.0,96,0.00,,,0.06,Wunderground v.1.15,2013-04-10 08:26:00,
2013-04-10 04:32:00,45.8,44.7,29.95,NNE,20,0.0,0.0,96,0.00,,,0.06,Wunderground v.1.15,2013-04-10 08:32:00,
2013-04-10 04:38:00,45.8,44.7,29.95,North,3,1.0,3.0,96,0.00,,,0.06,Wunderground v.1.15,2013-04-10 08:38:00,
2013-04-10 04:44:00,45.8,44.7,29.94,NNE,17,1.0,1.0,96,0.00,,,0.06,Wunderground v.1.15,2013-04-10 08:44:00,
2013-04-10 04:50:00,45.8,44.7,29.95,NE,41,1.0,1.0,96,0.00,,,0.06,Wunderground v.1.15,2013-04-10 08:50:00,
2013-04-10 04:56:00,45.7,44.6,29.95,NNE,30,1.0,1.0,96,0.00,,,0.06,Wunderground v.1.15,2013-04-10 08:56:00,
2013-04-10 05:02:00,45.7,44.6,29.93,North,5,2.0,2.0,96,0.00,,,0.06,Wunderground v.1.15,2013-04-10 09:02:00,
2013-04-10 05:08:00,45.7,44.6,29.93,ENE,77,2.0,2.0,96,0.00,,,0.06,Wunderground v.1.15,2013-04-10 09:08:00,
2013-04-10 05:14:00,45.6,44.5,29.94,NE,40,2.0,3.0,96,0.00,,,0.06,Wunderground v.1.15,2013-04-10 09:14:00,
2013-04-10 05:20:00,45.6,44.5,29.95,NNE,13,1.0,3.0,96,0.00,,,0.06,Wunderground v.1.15,2013-04-10 09:20:00,
2013-04-10 05:26:00,45.5,44.4,29.94,NE,51,3.0,5.0,96,0.00,,,0.06,Wunderground v.1.15,2013-04-10 09:26:00,
2013-04-10 05:32:00,45.4,44.3,29.95,NNW,347,3.0,3.0,96,0.00,,,0.06,Wunderground v.1.15,2013-04-10 09:32:00,
2013-04-10 05:38:00,45.2,44.1,29.96,NNW,348,2.0,3.0,96,0.00,,,0.06,Wunderground v.1.15,2013-04-10 09:38:00,
2013-04-10 05:44:00,45.2,44.1,29.95,NNE,25,1.0,2.0,96,0.00,,,0.06,Wunderground v.1.15,2013-04-10 09:44:00,
2013-04-10 05:50:00,45.2,44.4,29.95,NNE,19,1.0,5.0,97,0.00,,,0.06,Wunderground v.1.15,2013-04-10 09:50:00,
2013-04-10 05:56:00,45.1,44.3,29.94,NE,43,3.0,5.0,97,0.00,,,0.06,Wunderground v.1.15,2013-04-10 09:56:00,
2013-04-10 06:02:00,45.1,44.3,29.93,NE,44,2.0,4.0,97,0.00,,,0.06,Wunderground v.1.15,2013-04-10 10:02:00,
2013-04-10 06:08:00,45.0,44.2,29.93,NNW,347,2.0,4.0,97,0.00,,,0.06,Wunderground v.1.15,2013-04-10 10:08:00,
2013-04-10 06:14:00,44.9,44.1,29.94,NE,34,2.0,3.0,97,0.00,,,0.06,Wunderground v.1.15,2013-04-10 10:14:00,
2013-04-10 06:20:00,44.9,44.1,29.95,NNE,22,1.0,2.0,97,0.00,,,0.06,Wunderground v.1.15,2013-04-10 10:20:00,
2013-04-10 06:26:00,44.8,44.0,29.96,NE,43,1.0,3.0,97,0.00,,,0.06,Wunderground v.1.15,2013-04-10 10:26:00,
2013-04-10 06:32:00,44.8,44.0,29.97,NE,36,2.0,3.0,97,0.00,,,0.06,Wunderground v.1.15,2013-04-10 10:32:00,
2013-04-10 06:38:00,44.7,43.9,29.98,North,6,2.0,6.0,97,0.00,,,0.06,Wunderground v.1.15,2013-04-10 10:38:00,
2013-04-10 06:44:00,44.6,43.8,29.97,NNE,27,2.0,4.0,97,0.00,,,0.06,Wunderground v.1.15,2013-04-10 10:44:00,
2013-04-10 06:50:00,44.4,43.6,29.96,NNE,18,2.0,2.0,97,0.00,,,0.06,Wunderground v.1.15,2013-04-10 10:50:00,
2013-04-10 06:56:00,44.3,43.5,29.97,NNW,333,2.0,3.0,97,0.00,,,0.06,Wunderground v.1.15,2013-04-10 10:56:00,
2013-04-10 07:02:00,44.3,43.5,29.98,NE,45,3.0,3.0,97,0.00,,,0.06,Wunderground v.1.15,2013-04-10 11:02:00,
2013-04-10 07:08:00,44.2,43.4,29.97,SSW,198,2.0,3.0,97,0.00,,,0.06,Wunderground v.1.15,2013-04-10 11:08:00,
2013-04-10 07:14:00,44.2,43.4,29.97,NNE,27,1.0,2.0,97,0.00,,,0.06,Wunderground v.1.15,2013-04-10 11:14:00,
2013-04-10 07:20:00,44.1,43.3,29.96,NNE,25,2.0,2.0,97,0.00,,,0.06,Wunderground v.1.15,2013-04-10 11:20:00,
2013-04-10 07:26:00,44.1,43.3,29.95,NE,34,2.0,3.0,97,0.00,,,0.06,Wunderground v.1.15,2013-04-10 11:26:00,
2013-04-10 07:32:00,44.0,43.2,29.96,NNE,12,3.0,5.0,97,0.00,,,0.06,Wunderground v.1.15,2013-04-10 11:32:00,
2013-04-10 07:44:00,43.9,43.1,29.97,NNE,30,3.0,3.0,97,0.00,,,0.06,Wunderground v.1.15,2013-04-10 11:44:00,
2013-04-10 07:50:00,43.9,43.1,29.97,North,350,3.0,3.0,97,0.00,,,0.06,Wunderground v.1.15,2013-04-10 11:50:00,
2013-04-10 07:56:00,43.8,43.0,29.96,East,79,3.0,5.0,97,0.00,,,0.06,Wunderground v.1.15,2013-04-10 11:56:00,
2013-04-10 08:02:00,43.7,42.9,29.97,North,9,3.0,3.0,97,0.00,,,0.06,Wunderground v.1.15,2013-04-10 12:02:00,
2013-04-10 08:08:00,43.7,42.9,29.97,NNE,27,3.0,3.0,97,0.00,,,0.06,Wunderground v.1.15,2013-04-10 12:08:00,
2013-04-10 08:14:00,43.7,42.9,29.97,NNE,23,3.0,4.0,97,0.00,,,0.06,Wunderground v.1.15,2013-04-10 12:14:00,
2013-04-10 08:20:00,43.7,42.9,29.96,NNE,23,4.0,4.0,97,0.00,,,0.06,Wunderground v.1.15,2013-04-10 12:20:00,
2013-04-10 08:26:00,43.8,43.0,29.97,NE,39,3.0,4.0,97,0.00,,,0.06,Wunderground v.1.15,2013-04-10 12:26:00,
2013-04-10 08:32:00,43.8,43.0,29.97,North,359,2.0,4.0,97,0.00,,,0.06,Wunderground v.1.15,2013-04-10 12:32:00,
2013-04-10 08:38:00,43.9,43.1,29.97,NE,45,2.0,2.0,97,0.00,,,0.06,Wunderground v.1.15,2013-04-10 12:38:00,
2013-04-10 08:44:00,43.9,43.1,29.97,NNE,15,3.0,3.0,97,0.00,,,0.06,Wunderground v.1.15,2013-04-10 12:44:00,
2013-04-10 08:50:00,44.0,43.2,29.97,North,4,3.0,3.0,97,0.00,,,0.06,Wunderground v.1.15,2013-04-10 12:50:00,
2013-04-10 08:56:00,44.1,43.3,29.97,North,354,3.0,5.0,97,0.00,,,0.06,Wunderground v.1.15,2013-04-10 12:56:00,
2013-04-10 09:02:00,44.2,43.4,29.97,NNE,30,3.0,5.0,97,0.00,,,0.06,Wunderground v.1.15,2013-04-10 13:02:00,
2013-04-10 09:08:00,44.3,43.5,29.98,North,4,3.0,5.0,97,0.00,,,0.06,Wunderground v.1.15,2013-04-10 13:08:00,
2013-04-10 09:14:00,44.4,43.6,29.97,North,350,3.0,6.0,97,0.00,,,0.06,Wunderground v.1.15,2013-04-10 13:14:00,
2013-04-10 09:20:00,44.4,43.6,29.97,NE,38,3.0,3.0,97,0.00,,,0.06,Wunderground v.1.15,2013-04-10 13:20:00,
2013-04-10 09:26:00,44.4,43.6,29.97,SE,134,4.0,6.0,97,0.00,,,0.06,Wunderground v.1.15,2013-04-10 13:26:00,
2013-04-10 09:32:00,44.4,43.6,29.97,NW,321,5.0,5.0,97,0.00,,,0.06,Wunderground v.1.15,2013-04-10 13:32:00,
2013-04-10 09:38:00,44.4,43.6,29.97,NE,53,3.0,6.0,97,0.00,,,0.06,Wunderground v.1.15,2013-04-10 13:38:00,
2013-04-10 09:44:00,44.5,43.7,29.96,North,3,3.0,5.0,97,0.00,,,0.06,Wunderground v.1.15,2013-04-10 13:44:00,
2013-04-10 09:50:00,44.4,43.3,29.97,NNE,23,3.0,3.0,96,0.00,,,0.06,Wunderground v.1.15,2013-04-10 13:50:00,
2013-04-10 09:56:00,44.5,43.4,29.98,North,352,3.0,3.0,96,0.00,,,0.06,Wunderground v.1.15,2013-04-10 13:56:00,
2013-04-10 10:02:00,44.5,43.4,29.97,WNW,290,2.0,2.0,96,0.00,,,0.06,Wunderground v.1.15,2013-04-10 14:02:00,
2013-04-10 10:08:00,44.4,43.3,29.99,North,9,1.0,4.0,96,0.00,,,0.06,Wunderground v.1.15,2013-04-10 14:08:00,
2013-04-10 10:14:00,44.5,43.7,30.00,East,79,1.0,1.0,97,0.00,,,0.06,Wunderground v.1.15,2013-04-10 14:14:00,
2013-04-10 10:20:00,44.4,43.6,29.98,North,11,1.0,2.0,97,0.39,,,0.08,Wunderground v.1.15,2013-04-10 14:20:00,
2013-04-10 10:26:00,44.3,43.2,29.96,ENE,59,2.0,3.0,96,0.36,,,0.13,Wunderground v.1.15,2013-04-10 14:26:00,
2013-04-10 10:32:00,44.2,43.1,29.98,NNE,32,2.0,4.0,96,0.24,,,0.16,Wunderground v.1.15,2013-04-10 14:32:00,
2013-04-10 10:38:00,44.2,43.4,29.98,NNE,19,3.0,5.0,97,0.22,,,0.18,Wunderground v.1.15,2013-04-10 14:38:00,
2013-04-10 10:44:00,44.0,42.9,29.97,NE,39,4.0,6.0,96,0.36,,,0.22,Wunderground v.1.15,2013-04-10 14:44:00,
2013-04-10 10:50:00,43.9,42.8,29.89,SW,218,4.0,4.0,96,0.35,,,0.25,Wunderground v.1.15,2013-04-10 14:50:00,
2013-04-10 10:56:00,43.9,43.1,29.94,North,359,3.0,4.0,97,0.25,,,0.27,Wunderground v.1.15,2013-04-10 14:56:00,
2013-04-10 11:02:00,43.9,43.1,29.97,NNE,24,2.0,7.0,97,0.07,,,0.27,Wunderground v.1.15,2013-04-10 15:02:00,
2013-04-10 11:08:00,43.9,43.1,29.99,NNE,20,4.0,7.0,97,0.04,,,0.27,Wunderground v.1.15,2013-04-10 15:08:00,
2013-04-10 11:14:00,43.8,42.7,30.00,NNE,25,3.0,4.0,96,0.00,,,0.27,Wunderground v.1.15,2013-04-10 15:14:00,
2013-04-10 11:20:00,43.7,42.6,30.00,North,8,3.0,5.0,96,0.00,,,0.28,Wunderground v.1.15,2013-04-10 15:20:00,
2013-04-10 11:26:00,43.6,42.5,30.01,North,1,4.0,6.0,96,0.40,,,0.30,Wunderground v.1.15,2013-04-10 15:26:00,
2013-04-10 11:32:00,43.5,42.4,29.93,NE,36,3.0,6.0,96,0.82,,,0.36,Wunderground v.1.15,2013-04-10 15:32:00,
2013-04-10 11:38:00,43.3,42.2,29.98,NNE,15,2.0,6.0,96,0.16,,,0.39,Wunderground v.1.15,2013-04-10 15:38:00,
2013-04-10 11:44:00,43.4,42.3,29.95,ENE,65,2.0,2.0,96,0.11,,,0.40,Wunderground v.1.15,2013-04-10 15:44:00,
2013-04-10 11:50:00,43.5,42.4,29.94,West,266,2.0,2.0,96,0.06,,,0.40,Wunderground v.1.15,2013-04-10 15:50:00,
2013-04-10 11:56:00,43.7,42.6,29.94,NNE,18,2.0,4.0,96,0.04,,,0.40,Wunderground v.1.15,2013-04-10 15:56:00,
2013-04-10 12:02:00,43.8,42.7,29.95,NE,49,3.0,3.0,96,0.00,,,0.40,Wunderground v.1.15,2013-04-10 16:02:00,
2013-04-10 12:08:00,44.0,42.9,29.93,NNW,339,3.0,3.0,96,0.00,,,0.40,Wunderground v.1.15,2013-04-10 16:08:00,
2013-04-10 12:14:00,44.2,43.1,29.94,North,354,2.0,2.0,96,0.00,,,0.40,Wunderground v.1.15,2013-04-10 16:14:00,
2013-04-10 12:20:00,44.2,42.9,29.94,NE,45,3.0,3.0,95,0.00,,,0.40,Wunderground v.1.15,2013-04-10 16:20:00,
2013-04-10 12:26:00,44.2,42.9,29.93,NW,316,3.0,3.0,95,0.00,,,0.40,Wunderground v.1.15,2013-04-10 16:26:00,
2013-04-10 12:32:00,44.4,43.1,29.93,North,11,2.0,6.0,95,0.00,,,0.40,Wunderground v.1.15,2013-04-10 16:32:00,
2013-04-10 12:38:00,44.6,43.3,29.93,North,354,2.0,6.0,95,0.00,,,0.40,Wunderground v.1.15,2013-04-10 16:38:00,
2013-04-10 12:44:00,44.7,43.4,29.93,NE,37,2.0,3.0,95,0.00,,,0.40,Wunderground v.1.15,2013-04-10 16:44:00,
2013-04-10 12:50:00,44.9,43.6,29.93,NNE,30,2.0,4.0,95,0.00,,,0.40,Wunderground v.1.15,2013-04-10 16:50:00,
2013-04-10 12:56:00,45.1,43.5,29.93,ENE,70,2.0,4.0,94,0.00,,,0.40,Wunderground v.1.15,2013-04-10 16:56:00,
2013-04-10 13:02:00,45.2,43.6,29.91,NNE,22,2.0,5.0,94,0.00,,,0.40,Wunderground v.1.15,2013-04-10 17:02:00,
2013-04-10 13:08:00,45.6,44.0,29.91,NNE,12,2.0,5.0,94,0.00,,,0.40,Wunderground v.1.15,2013-04-10 17:08:00,
2013-04-10 13:14:00,45.8,44.2,29.91,NNE,24,2.0,2.0,94,0.00,,,0.40,Wunderground v.1.15,2013-04-10 17:14:00,
2013-04-10 13:20:00,45.8,43.9,29.90,NE,52,2.0,2.0,93,0.00,,,0.40,Wunderground v.1.15,2013-04-10 17:20:00,
2013-04-10 13:26:00,45.9,44.0,29.90,North,349,2.0,6.0,93,0.00,,,0.40,Wunderground v.1.15,2013-04-10 17:26:00,
2013-04-10 13:32:00,45.6,43.4,29.90,NNE,18,2.0,5.0,92,0.00,,,0.40,Wunderground v.1.15,2013-04-10 17:32:00,
2013-04-10 13:38:00,45.4,43.2,29.90,North,8,3.0,5.0,92,0.00,,,0.40,Wunderground v.1.15,2013-04-10 17:38:00,
2013-04-10 13:44:00,45.3,43.4,29.89,NNE,30,3.0,4.0,93,0.00,,,0.40,Wunderground v.1.15,2013-04-10 17:44:00,
2013-04-10 13:50:00,45.3,43.4,29.89,NNE,20,3.0,3.0,93,0.00,,,0.40,Wunderground v.1.15,2013-04-10 17:50:00,
2013-04-10 13:56:00,45.2,43.3,29.90,North,5,2.0,3.0,93,0.00,,,0.40,Wunderground v.1.15,2013-04-10 17:56:00,
2013-04-10 14:02:00,44.9,43.0,29.90,North,6,3.0,3.0,93,0.00,,,0.40,Wunderground v.1.15,2013-04-10 18:02:00,
2013-04-10 14:08:00,44.4,42.5,29.89,NNE,31,4.0,8.0,93,0.00,,,0.40,Wunderground v.1.15,2013-04-10 18:08:00,
2013-04-10 14:14:00,44.1,42.5,29.89,West,259,4.0,5.0,94,0.00,,,0.40,Wunderground v.1.15,2013-04-10 18:14:00,
2013-04-10 14:20:00,43.8,42.2,29.89,North,6,3.0,3.0,94,0.00,,,0.40,Wunderground v.1.15,2013-04-10 18:20:00,
2013-04-10 14:26:00,43.5,41.9,29.89,NNW,333,3.0,7.0,94,0.00,,,0.40,Wunderground v.1.15,2013-04-10 18:26:00,
2013-04-10 14:32:00,43.2,41.9,29.88,East,101,4.0,8.0,95,0.00,,,0.40,Wunderground v.1.15,2013-04-10 18:32:00,
2013-04-10 14:38:00,42.9,41.6,29.88,North,8,5.0,8.0,95,0.00,,,0.40,Wunderground v.1.15,2013-04-10 18:38:00,
2013-04-10 14:44:00,42.7,41.4,29.89,North,4,5.0,6.0,95,1.07,,,0.48,Wunderground v.1.15,2013-04-10 18:44:00,
2013-04-10 14:50:00,42.5,41.2,29.90,North,359,4.0,4.0,95,0.40,,,0.57,Wunderground v.1.15,2013-04-10 18:50:00,
2013-04-10 14:56:00,42.2,40.9,29.86,WSW,251,4.0,6.0,95,0.38,,,0.59,Wunderground v.1.15,2013-04-10 18:56:00,
2013-04-10 15:02:00,42.1,41.0,29.86,NNE,20,4.0,4.0,96,0.13,,,0.60,Wunderground v.1.15,2013-04-10 19:02:00,
2013-04-10 15:08:00,42.0,40.9,29.86,NNE,20,3.0,4.0,96,0.07,,,0.60,Wunderground v.1.15,2013-04-10 19:08:00,
2013-04-10 15:14:00,41.8,40.7,29.85,ENE,76,4.0,5.0,96,0.04,,,0.60,Wunderground v.1.15,2013-04-10 19:14:00,
2013-04-10 15:20:00,41.6,40.5,29.84,NNE,27,4.0,9.0,96,0.00,,,0.60,Wunderground v.1.15,2013-04-10 19:20:00,
2013-04-10 15:26:00,41.4,40.3,29.86,North,3,4.0,9.0,96,0.00,,,0.61,Wunderground v.1.15,2013-04-10 19:26:00,
2013-04-10 15:32:00,41.2,40.1,29.93,NNW,327,4.0,6.0,96,4.24,,,0.70,Wunderground v.1.15,2013-04-10 19:32:00,
2013-04-10 15:38:00,41.0,40.2,29.97,NE,34,3.0,6.0,97,0.52,,,0.78,Wunderground v.1.15,2013-04-10 19:38:00,
2013-04-10 15:44:00,40.8,40.0,29.92,NNE,18,4.0,5.0,97,0.23,,,0.82,Wunderground v.1.15,2013-04-10 19:44:00,
2013-04-10 15:50:00,40.7,39.9,29.91,NE,42,4.0,6.0,97,0.15,,,0.83,Wunderground v.1.15,2013-04-10 19:50:00,
2013-04-10 15:56:00,40.4,39.6,29.87,North,6,4.0,7.0,97,0.14,,,0.85,Wunderground v.1.15,2013-04-10 19:56:00,
2013-04-10 16:02:00,40.3,39.5,29.83,North,358,5.0,9.0,97,0.12,,,0.86,Wunderground v.1.15,2013-04-10 20:02:00,
2013-04-10 16:08:00,40.1,39.3,29.83,ESE,104,5.0,9.0,97,0.08,,,0.86,Wunderground v.1.15,2013-04-10 20:08:00,
2013-04-10 16:14:00,40.1,39.3,29.84,South,187,5.0,6.0,97,0.04,,,0.86,Wunderground v.1.15,2013-04-10 20:14:00,
2013-04-10 16:20:00,40.1,39.3,29.84,ENE,70,4.0,4.0,97,0.00,,,0.86,Wunderground v.1.15,2013-04-10 20:20:00,
2013-04-10 16:26:00,40.5,39.7,29.86,NE,38,3.0,4.0,97,0.00,,,0.86,Wunderground v.1.15,2013-04-10 20:26:00,
2013-04-10 16:32:00,40.5,39.7,29.87,NE,34,3.0,3.0,97,0.00,,,0.86,Wunderground v.1.15,2013-04-10 20:32:00,
2013-04-10 16:38:00,40.6,39.8,29.88,NE,45,3.0,6.0,97,0.00,,,0.86,Wunderground v.1.15,2013-04-10 20:38:00,
2013-04-10 16:44:00,40.5,39.7,29.88,NE,38,3.0,7.0,97,0.00,,,0.86,Wunderground v.1.15,2013-04-10 20:44:00,
2013-04-10 16:50:00,40.6,39.8,29.89,North,360,4.0,4.0,97,0.00,,,0.86,Wunderground v.1.15,2013-04-10 20:50:00,
2013-04-10 16:56:00,40.6,39.8,29.90,North,6,4.0,8.0,97,0.00,,,0.86,Wunderground v.1.15,2013-04-10 20:56:00,
2013-04-10 17:02:00,40.7,39.9,29.89,NNW,333,4.0,4.0,97,0.00,,,0.86,Wunderground v.1.15,2013-04-10 21:02:00,
2013-04-10 17:08:00,40.7,39.9,29.89,ENE,57,3.0,4.0,97,0.00,,,0.86,Wunderground v.1.15,2013-04-10 21:08:00,
2013-04-10 17:14:00,40.7,39.9,29.88,North,358,4.0,6.0,97,0.00,,,0.86,Wunderground v.1.15,2013-04-10 21:14:00,
2013-04-10 17:20:00,40.7,39.9,29.88,NNE,22,4.0,4.0,97,0.00,,,0.86,Wunderground v.1.15,2013-04-10 21:20:00,
2013-04-10 17:26:00,40.8,40.0,29.88,NNE,23,4.0,4.0,97,0.00,,,0.86,Wunderground v.1.15,2013-04-10 21:26:00,
2013-04-10 17:32:00,40.8,40.0,29.88,East,79,3.0,5.0,97,0.00,,,0.86,Wunderground v.1.15,2013-04-10 21:32:00,
2013-04-10 17:38:00,40.6,39.8,29.90,NNE,19,5.0,8.0,97,0.00,,,0.86,Wunderground v.1.15,2013-04-10 21:38:00,
2013-04-10 17:44:00,40.6,39.8,29.90,NNW,328,4.0,6.0,97,0.00,,,0.86,Wunderground v.1.15,2013-04-10 21:44:00,
2013-04-10 17:50:00,40.5,39.7,29.90,NNW,346,4.0,5.0,97,0.00,,,0.86,Wunderground v.1.15,2013-04-10 21:50:00,
2013-04-10 17:56:00,40.4,39.6,29.91,ESE,110,4.0,5.0,97,0.00,,,0.86,Wunderground v.1.15,2013-04-10 21:56:00,
2013-04-10 18:02:00,40.3,39.5,29.93,NNE,25,4.0,4.0,97,0.00,,,0.86,Wunderground v.1.15,2013-04-10 22:02:00,
2013-04-10 18:08:00,40.3,39.5,29.93,North,358,4.0,4.0,97,0.00,,,0.86,Wunderground v.1.15,2013-04-10 22:08:00,
2013-04-10 18:14:00,40.2,39.4,29.94,NNW,348,4.0,6.0,97,0.00,,,0.86,Wunderground v.1.15,2013-04-10 22:14:00,
2013-04-10 18:20:00,40.3,39.5,29.94,NNE,26,4.0,6.0,97,0.00,,,0.86,Wunderground v.1.15,2013-04-10 22:20:00,
2013-04-10 18:26:00,40.2,39.4,29.94,NNE,12,4.0,7.0,97,0.00,,,0.86,Wunderground v.1.15,2013-04-10 22:26:00,
2013-04-10 18:32:00,40.2,39.4,29.95,NW,314,5.0,7.0,97,0.00,,,0.86,Wunderground v.1.15,2013-04-10 22:32:00,
2013-04-10 18:38:00,40.1,39.3,29.95,NW,315,5.0,7.0,97,0.00,,,0.86,Wunderground v.1.15,2013-04-10 22:38:00,
2013-04-10 18:44:00,40.1,39.3,29.95,NNE,32,5.0,6.0,97,0.00,,,0.87,Wunderground v.1.15,2013-04-10 22:44:00,
2013-04-10 18:50:00,40.1,39.3,29.93,NE,37,5.0,5.0,97,0.00,,,0.87,Wunderground v.1.15,2013-04-10 22:50:00,
2013-04-10 18:56:00,40.0,39.2,29.92,NNE,17,5.0,6.0,97,0.00,,,0.87,Wunderground v.1.15,2013-04-10 22:56:00,
2013-04-10 19:02:00,40.0,39.2,29.92,NW,326,5.0,5.0,97,0.00,,,0.87,Wunderground v.1.15,2013-04-10 23:02:00,
2013-04-10 19:08:00,39.9,39.1,29.92,North,355,4.0,5.0,97,0.00,,,0.87,Wunderground v.1.15,2013-04-10 23:08:00,
2013-04-10 19:14:00,39.9,39.1,29.92,North,10,4.0,8.0,97,0.00,,,0.87,Wunderground v.1.15,2013-04-10 23:14:00,
2013-04-10 19:20:00,39.9,39.1,29.93,North,352,5.0,7.0,97,0.00,,,0.87,Wunderground v.1.15,2013-04-10 23:20:00,
2013-04-10 19:26:00,39.9,39.1,29.93,NE,46,6.0,8.0,97,0.00,,,0.87,Wunderground v.1.15,2013-04-10 23:26:00,
2013-04-10 19:32:00,39.9,39.1,29.93,NE,46,5.0,6.0,97,0.00,,,0.87,Wunderground v.1.15,2013-04-10 23:32:00,
2013-04-10 19:38:00,39.9,39.1,29.94,NNE,18,5.0,8.0,97,0.00,,,0.87,Wunderground v.1.15,2013-04-10 23:38:00,
2013-04-10 19:44:00,39.9,39.1,29.94,NNE,30,4.0,5.0,97,0.00,,,0.87,Wunderground v.1.15,2013-04-10 23:44:00,
2013-04-10 19:50:00,39.7,38.9,29.94,NE,53,4.0,8.0,97,0.00,,,0.87,Wunderground v.1.15,2013-04-10 23:50:00,
2013-04-10 19:56:00,39.7,38.9,29.94,NNE,22,5.0,8.0,97,0.00,,,0.87,Wunderground v.1.15,2013-04-10 23:56:00,
2013-04-10 20:02:00,39.5,38.7,29.94,NNE,27,5.0,7.0,97,0.00,,,0.87,Wunderground v.1.15,2013-04-11 00:02:00,
2013-04-10 20:08:00,39.5,38.7,29.94,North,354,5.0,7.0,97,0.00,,,0.87,Wunderground v.1.15,2013-04-11 00:08:00,
2013-04-10 20:14:00,39.4,38.6,29.94,NE,56,5.0,7.0,97,0.00,,,0.87,Wunderground v.1.15,2013-04-11 00:14:00,
2013-04-10 20:20:00,39.3,38.5,29.93,North,9,4.0,4.0,97,0.00,,,0.87,Wunderground v.1.15,2013-04-11 00:20:00,
2013-04-10 20:26:00,39.2,38.4,29.95,NE,47,4.0,6.0,97,0.00,,,0.87,Wunderground v.1.15,2013-04-11 00:26:00,
2013-04-10 20:32:00,39.2,38.4,29.96,NW,321,4.0,5.0,97,0.00,,,0.87,Wunderground v.1.15,2013-04-11 00:32:00,
2013-04-10 20:38:00,39.2,38.4,29.98,NNW,345,3.0,5.0,97,0.00,,,0.87,Wunderground v.1.15,2013-04-11 00:38:00,
2013-04-10 20:44:00,39.1,38.3,29.98,NNE,17,3.0,4.0,97,0.00,,,0.87,Wunderground v.1.15,2013-04-11 00:44:00,
2013-04-10 20:50:00,39.1,38.3,29.99,NNE,30,3.0,5.0,97,0.00,,,0.87,Wunderground v.1.15,2013-04-11 00:50:00,
2013-04-10 20:56:00,39.1,38.3,30.00,North,5,3.0,5.0,97,0.00,,,0.87,Wunderground v.1.15,2013-04-11 00:56:00,
2013-04-10 21:02:00,39.1,38.3,30.00,NNE,27,3.0,4.0,97,0.00,,,0.87,Wunderground v.1.15,2013-04-11 01:02:00,
2013-04-10 21:08:00,39.0,38.2,30.00,NE,43,3.0,4.0,97,0.00,,,0.87,Wunderground v.1.15,2013-04-11 01:08:00,
2013-04-10 21:14:00,39.0,38.2,30.00,North,6,3.0,4.0,97,0.00,,,0.87,Wunderground v.1.15,2013-04-11 01:14:00,
2013-04-10 21:20:00,39.1,38.3,30.00,NNE,30,2.0,3.0,97,0.00,,,0.87,Wunderground v.1.15,2013-04-11 01:20:00,
2013-04-10 21:26:00,39.0,38.2,30.00,NNE,29,1.0,5.0,97,0.00,,,0.87,Wunderground v.1.15,2013-04-11 01:26:00,
2013-04-10 21:32:00,39.0,38.2,29.99,NE,43,2.0,4.0,97,0.00,,,0.87,Wunderground v.1.15,2013-04-11 01:32:00,
2013-04-10 21:38:00,39.0,38.2,29.99,SSE,154,2.0,4.0,97,0.00,,,0.87,Wunderground v.1.15,2013-04-11 01:38:00,
2013-04-10 21:44:00,39.0,38.2,29.98,North,1,2.0,2.0,97,0.00,,,0.87,Wunderground v.1.15,2013-04-11 01:44:00,
2013-04-10 21:50:00,39.0,38.2,29.99,NNE,22,2.0,2.0,97,0.00,,,0.87,Wunderground v.1.15,2013-04-11 01:50:00,
2013-04-10 21:56:00,39.1,38.3,29.99,NNE,30,1.0,2.0,97,0.00,,,0.87,Wunderground v.1.15,2013-04-11 01:56:00,
2013-04-10 22:02:00,39.1,38.3,29.99,North,10,1.0,1.0,97,0.00,,,0.87,Wunderground v.1.15,2013-04-11 02:02:00,
2013-04-10 22:08:00,39.0,38.2,29.97,North,356,1.0,4.0,97,0.00,,,0.87,Wunderground v.1.15,2013-04-11 02:08:00,
2013-04-10 22:14:00,39.0,38.2,29.98,NE,38,2.0,4.0,97,0.00,,,0.87,Wunderground v.1.15,2013-04-11 02:14:00,
2013-04-10 22:20:00,39.0,38.2,29.98,NNE,13,2.0,4.0,97,0.00,,,0.87,Wunderground v.1.15,2013-04-11 02:20:00,
2013-04-10 22:26:00,39.0,38.2,29.98,NNE,16,3.0,4.0,97,0.00,,,0.87,Wunderground v.1.15,2013-04-11 02:26:00,
2013-04-10 22:32:00,39.0,38.2,29.97,NE,34,3.0,5.0,97,0.00,,,0.87,Wunderground v.1.15,2013-04-11 02:32:00,
2013-04-10 22:38:00,39.0,38.2,29.99,North,359,3.0,5.0,97,0.00,,,0.87,Wunderground v.1.15,2013-04-11 02:38:00,
2013-04-10 22:44:00,39.0,38.2,30.00,NNE,27,3.0,4.0,97,0.00,,,0.87,Wunderground v.1.15,2013-04-11 02:44:00,
2013-04-10 22:50:00,39.1,38.3,30.00,NNE,20,3.0,4.0,97,0.00,,,0.87,Wunderground v.1.15,2013-04-11 02:50:00,
2013-04-10 22:56:00,39.1,38.6,30.00,NNW,329,3.0,4.0,98,0.00,,,0.87,Wunderground v.1.15,2013-04-11 02:56:00,
2013-04-10 23:02:00,39.1,38.6,30.00,NE,42,2.0,2.0,98,0.00,,,0.87,Wunderground v.1.15,2013-04-11 03:02:00,
2013-04-10 23:08:00,39.0,38.2,30.01,NNE,13,2.0,4.0,97,0.00,,,0.87,Wunderground v.1.15,2013-04-11 03:08:00,
2013-04-10 23:14:00,38.9,38.1,30.01,NNE,17,3.0,4.0,97,0.00,,,0.87,Wunderground v.1.15,2013-04-11 03:14:00,
2013-04-10 23:20:00,38.8,38.0,30.00,NNE,27,3.0,3.0,97,0.00,,,0.87,Wunderground v.1.15,2013-04-11 03:20:00,
2013-04-10 23:26:00,38.8,38.0,30.00,ESE,104,3.0,6.0,97,0.00,,,0.87,Wunderground v.1.15,2013-04-11 03:26:00,
2013-04-10 23:32:00,38.7,37.9,29.99,East,87,3.0,6.0,97,0.00,,,0.87,Wunderground v.1.15,2013-04-11 03:32:00,
2013-04-10 23:38:00,38.6,37.8,29.98,NNE,23,4.0,7.0,97,0.00,,,0.87,Wunderground v.1.15,2013-04-11 03:38:00,
2013-04-10 23:44:00,38.6,37.8,29.98,North,355,3.0,4.0,97,0.00,,,0.87,Wunderground v.1.15,2013-04-11 03:44:00,
2013-04-10 23:50:00,38.6,37.8,29.98,North,8,2.0,3.0,97,0.00,,,0.87,Wunderground v.1.15,2013-04-11 03:50:00,
2013-04-10 23:56:00,38.5,37.7,29.97,ENE,62,2.0,3.0,97,0.00,,,0.87,Wunderground v.1.15,2013-04-11 03:56:00,